Time;durP1;ratioP1;P1;durP2;ratioP2;P2;SDS_P1;SDS_P2;PMS_P1;PMS_P2;Temp;Humidity;BMP_temperature;BMP_pressure;BME280_temperature;BME280_humidity;BME280_pressure;Samples;Min_cycle;Max_cycle;Signal;HPM_P1;HPM_P2
2021/05/29 00:02:24;;;;;;;10.13;4.50;;;;;;;7.74;86.41;95996.38;5110889;27;20043;-75
2021/05/29 00:04:50;;;;;;;5.82;4.53;;;;;;;7.71;85.56;95999.44;5100761;27;20035;-75
2021/05/29 00:07:16;;;;;;;5.88;3.90;;;;;;;7.70;85.40;95990.00;5099886;28;20499;-75
2021/05/29 00:09:42;;;;;;;7.13;4.28;;;;;;;7.70;85.09;95992.63;5102082;28;20461;-75
2021/05/29 00:12:10;;;;;;;6.45;4.53;;;;;;;7.73;84.55;95989.53;5110040;28;20481;-75
2021/05/29 00:14:38;;;;;;;8.05;4.30;;;;;;;7.79;84.33;95991.19;5106740;28;20115;-75
2021/05/29 00:17:06;;;;;;;5.75;4.50;;;;;;;7.78;84.37;95994.81;5099728;28;20031;-75
2021/05/29 00:19:32;;;;;;;5.53;4.20;;;;;;;7.73;85.17;95981.66;5105103;28;20032;-75
2021/05/29 00:21:57;;;;;;;5.40;4.38;;;;;;;7.69;85.99;95979.78;5091161;28;20052;-74
2021/05/29 00:24:23;;;;;;;7.50;4.72;;;;;;;7.66;85.99;95981.03;5097845;28;20139;-74
2021/05/29 00:26:49;;;;;;;7.75;4.43;;;;;;;7.62;87.07;95979.94;5094962;28;20031;-75
2021/05/29 00:29:14;;;;;;;6.43;4.50;;;;;;;7.59;87.09;95990.88;5111848;28;20031;-75
2021/05/29 00:31:41;;;;;;;6.45;4.88;;;;;;;7.59;86.73;95985.66;5094810;28;20723;-75
2021/05/29 00:34:07;;;;;;;6.18;4.53;;;;;;;7.58;87.10;95990.06;5104241;28;20039;-75
2021/05/29 00:36:33;;;;;;;7.20;5.00;;;;;;;7.57;87.20;95987.69;5093830;28;20036;-75
2021/05/29 00:38:58;;;;;;;8.13;5.15;;;;;;;7.58;86.40;95989.28;5101343;28;20040;-75
2021/05/29 00:41:24;;;;;;;10.55;5.57;;;;;;;7.55;86.54;95989.75;5097177;28;20489;-75
2021/05/29 00:43:50;;;;;;;10.82;5.47;;;;;;;7.51;86.76;95983.41;5095353;28;20149;-75
2021/05/29 00:46:15;;;;;;;8.73;5.00;;;;;;;7.52;86.32;95982.38;5091831;28;20051;-75
2021/05/29 00:48:41;;;;;;;10.27;5.05;;;;;;;7.52;86.75;95985.78;5106825;28;20072;-74
2021/05/29 00:51:08;;;;;;;9.30;4.47;;;;;;;7.54;86.38;95983.75;5103297;28;20493;-75
2021/05/29 00:53:35;;;;;;;8.15;5.00;;;;;;;7.57;86.17;95982.44;5091021;28;20122;-75
2021/05/29 00:56:05;;;;;;;13.10;4.55;;;;;;;7.60;85.82;95987.22;5090766;28;20043;-75
2021/05/29 00:58:31;;;;;;;7.63;4.65;;;;;;;7.61;85.62;95978.31;5093429;28;20060;-75
2021/05/29 01:00:58;;;;;;;7.28;4.50;;;;;;;7.57;86.22;95978.03;5105444;28;20051;-75
2021/05/29 01:03:25;;;;;;;8.98;4.43;;;;;;;7.60;85.95;95972.31;5104030;28;20039;-75
2021/05/29 01:05:51;;;;;;;6.88;4.65;;;;;;;7.57;85.90;95971.97;5110741;28;20043;-75
2021/05/29 01:08:16;;;;;;;8.65;4.85;;;;;;;7.50;87.17;95971.34;5102163;28;20043;-74
2021/05/29 01:10:42;;;;;;;6.55;4.55;;;;;;;7.45;86.37;95969.44;5108791;28;20042;-75
2021/05/29 01:13:10;;;;;;;10.38;4.10;;;;;;;7.45;87.68;95970.22;5091940;28;20051;-74
2021/05/29 01:15:44;;;;;;;10.93;4.80;;;;;;;7.37;87.37;95973.25;5094699;28;20039;-74
2021/05/29 01:18:17;;;;;;;12.57;5.13;;;;;;;7.33;86.66;95961.66;5104918;28;20493;-75
2021/05/29 01:20:46;;;;;;;7.32;4.45;;;;;;;7.29;86.76;95955.31;5095048;28;20461;-74
2021/05/29 01:23:13;;;;;;;7.43;4.30;;;;;;;7.30;86.32;95954.28;5101957;28;20032;-75
2021/05/29 01:25:47;;;;;;;12.75;4.63;;;;;;;7.26;86.60;95956.56;5105459;28;20036;-75
2021/05/29 01:28:16;;;;;;;13.15;5.13;;;;;;;7.21;87.06;95953.06;5107453;28;20112;-75
2021/05/29 01:30:47;;;;;;;6.85;4.63;;;;;;;7.20;86.75;95951.50;5108344;28;20040;-75
2021/05/29 01:33:16;;;;;;;11.85;5.00;;;;;;;7.18;86.76;95953.56;5096843;28;20047;-74
2021/05/29 01:35:44;;;;;;;6.97;4.38;;;;;;;7.18;86.09;95953.56;5090716;28;20554;-75
2021/05/29 01:38:12;;;;;;;7.95;4.47;;;;;;;7.11;87.48;95953.69;5106002;28;20074;-74
2021/05/29 01:40:38;;;;;;;6.60;4.57;;;;;;;7.13;86.79;95950.88;5102011;28;20046;-75
2021/05/29 01:43:05;;;;;;;7.68;4.50;;;;;;;7.02;87.63;95942.81;5103619;28;20032;-74
2021/05/29 01:45:30;;;;;;;7.15;4.70;;;;;;;6.96;88.12;95951.63;5109367;28;20413;-75
2021/05/29 01:47:56;;;;;;;8.43;4.30;;;;;;;6.96;88.06;95946.38;5101194;28;20036;-75
2021/05/29 01:50:22;;;;;;;10.80;4.97;;;;;;;6.95;87.94;95944.78;5109541;28;20413;-75
2021/05/29 01:52:54;;;;;;;9.70;4.38;;;;;;;6.95;88.23;95944.78;5105751;28;20040;-75
2021/05/29 01:55:22;;;;;;;7.80;4.55;;;;;;;6.89;88.02;95961.44;5090720;28;20036;-75
2021/05/29 01:57:49;;;;;;;7.55;4.38;;;;;;;6.89;87.62;95956.19;5110379;28;20040;-75
2021/05/29 02:00:16;;;;;;;6.78;4.53;;;;;;;6.81;88.52;95953.94;5109626;28;20167;-75
2021/05/29 02:02:42;;;;;;;6.45;4.68;;;;;;;6.81;87.81;95959.19;5092833;28;20400;-75
2021/05/29 02:05:13;;;;;;;6.18;4.55;;;;;;;6.80;87.99;95962.84;5099147;28;20040;-75
2021/05/29 02:07:38;;;;;;;6.78;4.82;;;;;;;6.80;87.58;95962.84;5104173;28;20046;-75
2021/05/29 02:10:04;;;;;;;7.68;4.32;;;;;;;6.81;87.63;95959.19;5104882;28;20122;-74
2021/05/29 02:12:41;;;;;;;6.93;4.70;;;;;;;6.81;87.46;95959.19;5098459;28;20032;-75
2021/05/29 02:15:08;;;;;;;8.02;4.80;;;;;;;6.94;88.97;95958.91;5101144;28;20047;-75
2021/05/29 02:17:34;;;;;;;5.78;4.43;;;;;;;6.95;87.88;95942.16;5109150;28;20035;-75
2021/05/29 02:19:59;;;;;;;7.35;4.70;;;;;;;7.03;87.22;95947.03;5099894;28;20583;-75
2021/05/29 02:22:25;;;;;;;7.45;5.20;;;;;;;6.93;88.10;95946.84;5097206;28;20119;-75
2021/05/29 02:24:51;;;;;;;8.10;5.07;;;;;;;6.92;88.92;95960.97;5109437;28;20093;-75
2021/05/29 02:27:16;;;;;;;7.03;4.68;;;;;;;6.93;88.28;95959.94;5100235;28;20044;-75
2021/05/29 02:29:41;;;;;;;12.13;5.10;;;;;;;6.95;88.48;95955.25;5097132;28;20036;-74
2021/05/29 02:32:07;;;;;;;7.30;4.93;;;;;;;6.91;88.49;95954.13;5098375;28;20451;-74
2021/05/29 02:34:33;;;;;;;8.75;4.90;;;;;;;6.92;89.02;95960.97;5095628;28;20566;-74
2021/05/29 02:36:58;;;;;;;7.25;4.85;;;;;;;6.96;88.07;95951.63;5108547;28;20096;-74
2021/05/29 02:39:24;;;;;;;7.45;4.80;;;;;;;6.90;87.91;95952.56;5108121;28;20428;-75
2021/05/29 02:41:49;;;;;;;8.88;4.88;;;;;;;6.84;88.52;95953.47;5105427;28;20051;-75
2021/05/29 02:44:15;;;;;;;7.10;4.80;;;;;;;6.80;88.86;95957.63;5102332;28;20360;-75
2021/05/29 02:46:40;;;;;;;9.48;5.13;;;;;;;6.78;89.22;95959.66;5105536;28;20378;-74
2021/05/29 02:49:06;;;;;;;7.63;5.45;;;;;;;6.72;88.00;95956.16;5113381;28;20070;-75
2021/05/29 02:51:31;;;;;;;9.02;4.80;;;;;;;6.64;88.78;95957.31;5113826;28;20089;-74
2021/05/29 02:53:57;;;;;;;6.75;4.57;;;;;;;6.61;88.86;95949.94;5111563;28;20043;-75
2021/05/29 02:56:22;;;;;;;8.07;5.10;;;;;;;6.57;89.35;95954.06;5101251;28;20493;-75
2021/05/29 02:58:48;;;;;;;7.22;4.95;;;;;;;6.53;89.54;95947.69;5102749;28;20035;-75
2021/05/29 03:01:13;;;;;;;5.57;4.40;;;;;;;6.54;89.14;95949.28;5112051;28;20043;-74
2021/05/29 03:03:39;;;;;;;8.18;5.22;;;;;;;6.54;89.23;95955.31;5106907;28;20097;-75
2021/05/29 03:06:04;;;;;;;6.30;4.60;;;;;;;6.61;88.38;95955.19;5097516;28;20124;-75
2021/05/29 03:08:30;;;;;;;7.57;4.78;;;;;;;6.68;87.99;95950.59;5109172;28;20035;-75
2021/05/29 03:10:56;;;;;;;10.40;5.30;;;;;;;6.59;88.39;95951.97;5107247;28;20035;-75
2021/05/29 03:13:22;;;;;;;7.70;5.05;;;;;;;6.53;89.17;95955.53;5095557;28;20040;-75
2021/05/29 03:15:48;;;;;;;9.23;5.80;;;;;;;6.53;89.73;95955.53;5101260;28;20071;-75
2021/05/29 03:18:14;;;;;;;9.77;5.55;;;;;;;6.54;89.81;95957.91;5109812;28;20119;-74
2021/05/29 03:20:39;;;;;;;6.80;5.00;;;;;;;6.58;89.17;95966.91;5111152;28;20115;-75
2021/05/29 03:23:06;;;;;;;6.30;4.97;;;;;;;6.62;88.68;95961.97;5103710;27;20111;-74
2021/05/29 03:25:31;;;;;;;9.20;5.32;;;;;;;6.62;89.14;95961.97;5104784;28;20115;-75
2021/05/29 03:27:57;;;;;;;7.00;5.07;;;;;;;6.67;88.87;95964.69;5108836;28;20118;-75
2021/05/29 03:30:26;;;;;;;6.00;4.45;;;;;;;6.74;88.01;95965.34;5113232;28;20040;-75
2021/05/29 03:32:53;;;;;;;7.53;5.05;;;;;;;6.76;87.40;95963.28;5106290;28;20032;-75
2021/05/29 03:35:19;;;;;;;7.55;5.18;;;;;;;6.73;88.54;95966.38;5092328;28;20119;-75
2021/05/29 03:37:45;;;;;;;8.50;5.30;;;;;;;6.71;88.34;95971.06;5106152;28;20046;-75
2021/05/29 03:40:12;;;;;;;6.35;5.20;;;;;;;6.70;88.74;95979.94;5107829;28;20035;-75
2021/05/29 03:42:38;;;;;;;8.30;5.50;;;;;;;6.73;88.94;95979.47;5102355;28;20493;-75
2021/05/29 03:45:07;;;;;;;8.32;5.70;;;;;;;6.86;88.19;95972.38;5097417;28;20034;-75
2021/05/29 03:47:33;;;;;;;7.75;5.13;;;;;;;6.80;88.67;95981.16;5103952;28;20039;-75
2021/05/29 03:49:59;;;;;;;9.43;5.80;;;;;;;6.82;88.53;95989.56;5111869;28;20100;-74
2021/05/29 03:52:24;;;;;;;8.20;5.45;;;;;;;6.82;88.37;96000.81;5110703;28;20035;-75
2021/05/29 03:54:50;;;;;;;9.35;5.55;;;;;;;6.75;89.16;95993.13;5111369;28;20119;-74
2021/05/29 03:57:15;;;;;;;7.22;5.65;;;;;;;6.79;88.91;95993.44;5107139;28;20398;-75
2021/05/29 03:59:41;;;;;;;9.57;5.80;;;;;;;6.80;88.46;95989.00;5111451;28;20032;-74
2021/05/29 04:02:06;;;;;;;7.90;5.43;;;;;;;6.87;89.07;96005.34;5111948;28;20489;-74
2021/05/29 04:04:32;;;;;;;9.63;5.95;;;;;;;6.91;88.81;96014.31;5111444;28;20048;-74
2021/05/29 04:07:00;;;;;;;10.15;5.90;;;;;;;6.92;88.01;96014.09;5106240;28;20439;-74
2021/05/29 04:09:26;;;;;;;8.95;6.03;;;;;;;6.97;87.74;96010.78;5108460;28;20035;-74
2021/05/29 04:11:51;;;;;;;8.23;5.57;;;;;;;7.03;88.31;96009.84;5112199;28;20055;-75
2021/05/29 04:14:17;;;;;;;6.28;5.25;;;;;;;7.17;87.24;95999.06;5109675;28;20097;-74
2021/05/29 04:16:43;;;;;;;8.65;5.55;;;;;;;7.18;87.24;96005.91;5100876;28;20421;-75
2021/05/29 04:19:08;;;;;;;8.77;5.40;;;;;;;7.22;87.95;96012.25;5101606;28;20065;-74
2021/05/29 04:21:34;;;;;;;7.30;5.43;;;;;;;7.27;88.22;96010.53;5112044;28;20421;-74
2021/05/29 04:23:59;;;;;;;10.52;5.45;;;;;;;7.36;87.65;96008.31;5111169;28;20099;-75
2021/05/29 04:26:26;;;;;;;7.97;5.88;;;;;;;7.37;88.39;96014.34;5096827;28;20402;-75
2021/05/29 04:28:51;;;;;;;7.70;5.43;;;;;;;7.41;88.10;96021.50;5108949;28;20558;-74
2021/05/29 04:31:18;;;;;;;7.30;5.68;;;;;;;7.49;88.43;96022.16;5107316;28;20043;-75
2021/05/29 04:33:43;;;;;;;7.55;5.50;;;;;;;7.53;87.71;96031.91;5110752;28;20035;-75
2021/05/29 04:36:09;;;;;;;9.73;5.82;;;;;;;7.60;88.36;96029.13;5098886;28;20047;-75
2021/05/29 04:38:35;;;;;;;10.38;5.80;;;;;;;7.66;87.51;96032.63;5093505;28;20594;-74
2021/05/29 04:41:00;;;;;;;9.13;6.13;;;;;;;7.76;87.65;96032.81;5091046;28;20071;-75
2021/05/29 04:43:26;;;;;;;8.45;6.30;;;;;;;7.88;87.67;96024.84;5096774;28;20079;-75
2021/05/29 04:45:51;;;;;;;7.85;5.82;;;;;;;7.94;86.95;96022.09;5106377;28;20040;-75
2021/05/29 04:48:17;;;;;;;11.00;5.75;;;;;;;8.01;87.17;96035.00;5104224;28;20048;-75
2021/05/29 04:53:29;;;;;;;7.93;5.75;;;;;;;8.13;87.58;96035.72;5090907;28;20444;-75
2021/05/29 04:55:54;;;;;;;8.98;5.97;;;;;;;8.21;87.17;96028.47;5091130;28;20039;-75
2021/05/29 04:58:21;;;;;;;8.85;6.05;;;;;;;8.25;86.46;96029.59;5092740;28;20035;-75
2021/05/29 05:00:47;;;;;;;7.65;5.80;;;;;;;8.42;86.28;96024.28;5096974;28;20485;-75
2021/05/29 05:03:12;;;;;;;7.72;6.18;;;;;;;8.47;85.50;96033.03;5090827;28;20040;-75
2021/05/29 05:05:38;;;;;;;7.47;5.80;;;;;;;8.52;85.67;96034.16;5094285;28;20047;-75
2021/05/29 05:08:04;;;;;;;7.88;5.88;;;;;;;8.57;85.88;96026.34;5101898;28;20039;-75
2021/05/29 05:10:30;;;;;;;10.05;5.90;;;;;;;8.65;85.42;96023.31;5094544;28;20088;-75
2021/05/29 05:12:55;;;;;;;7.78;5.93;;;;;;;8.73;85.12;96025.50;5111311;28;20443;-76
2021/05/29 05:15:21;;;;;;;9.70;6.00;;;;;;;8.89;84.43;96026.47;5109129;28;20064;-75
2021/05/29 05:17:46;;;;;;;9.63;5.82;;;;;;;8.98;82.93;96025.00;5106094;28;20036;-76
2021/05/29 05:20:13;;;;;;;7.95;5.57;;;;;;;9.17;83.12;96035.97;5105712;28;20035;-76
2021/05/29 05:22:39;;;;;;;8.93;5.32;;;;;;;9.27;80.95;96018.72;5111050;28;20404;-74
2021/05/29 05:25:06;;;;;;;8.05;5.60;;;;;;;9.32;81.02;96021.41;5110657;28;20044;-74
2021/05/29 05:27:32;;;;;;;7.63;5.32;;;;;;;9.42;80.41;96031.22;5106654;28;20047;-74
2021/05/29 05:29:57;;;;;;;7.80;6.00;;;;;;;9.43;80.34;96027.56;5101749;28;20052;-74
2021/05/29 05:32:23;;;;;;;8.45;5.60;;;;;;;9.47;81.04;96023.38;5103045;28;20566;-73
2021/05/29 05:34:49;;;;;;;9.68;5.75;;;;;;;9.71;78.63;96018.56;5104206;28;20047;-74
2021/05/29 05:37:15;;;;;;;10.82;6.07;;;;;;;9.58;78.86;96019.00;5092340;28;20317;-74
2021/05/29 05:39:41;;;;;;;8.98;5.90;;;;;;;9.54;79.02;96030.00;5107704;28;20043;-74
2021/05/29 05:42:07;;;;;;;8.02;5.88;;;;;;;9.72;78.94;96017.53;5100756;28;20052;-74
2021/05/29 05:44:33;;;;;;;8.18;5.85;;;;;;;9.80;78.80;96017.09;5095794;28;20035;-74
2021/05/29 05:46:58;;;;;;;8.07;5.95;;;;;;;9.65;79.39;96017.75;5096397;28;20114;-74
2021/05/29 05:49:24;;;;;;;9.82;6.22;;;;;;;9.78;78.76;96013.13;5102383;28;20032;-75
2021/05/29 05:51:49;;;;;;;7.43;5.68;;;;;;;9.79;77.76;96015.50;5103593;28;20036;-74
2021/05/29 05:54:15;;;;;;;13.15;5.82;;;;;;;9.83;77.27;96016.56;5089737;28;20427;-73
2021/05/29 05:56:40;;;;;;;10.25;5.60;;;;;;;9.98;76.29;96023.00;5095997;28;20040;-74
2021/05/29 05:59:06;;;;;;;6.78;5.47;;;;;;;10.08;74.57;96017.78;5093043;28;20489;-74
2021/05/29 06:01:32;;;;;;;6.78;4.78;;;;;;;10.13;73.55;96025.72;5103613;28;20050;-75
2021/05/29 06:03:57;;;;;;;8.32;5.25;;;;;;;10.30;72.24;96030.03;5101023;28;20043;-76
2021/05/29 06:06:23;;;;;;;7.43;4.82;;;;;;;10.31;73.77;96032.41;5101717;28;20039;-73
2021/05/29 06:08:49;;;;;;;7.07;4.47;;;;;;;10.36;73.47;96034.31;5104460;28;20036;-76
2021/05/29 06:11:15;;;;;;;10.27;5.30;;;;;;;10.40;71.97;96040.63;5097763;28;20054;-75
2021/05/29 06:21:49;;;;;;;7.45;4.55;;;;;;;10.58;69.88;96034.94;5109122;28;20039;-76
2021/05/29 06:24:20;;;;;;;6.28;4.03;;;;;;;10.61;68.06;96035.50;5106076;28;20043;-76
2021/05/29 06:26:48;;;;;;;6.15;4.50;;;;;;;10.74;69.42;96035.00;5105721;28;20043;-75
2021/05/29 06:29:15;;;;;;;5.68;4.40;;;;;;;10.90;68.89;96034.03;5107021;28;20044;-76
2021/05/29 06:31:40;;;;;;;6.00;4.18;;;;;;;11.10;68.00;96032.50;5114441;27;20100;-76
2021/05/29 06:34:06;;;;;;;6.35;4.47;;;;;;;11.05;70.22;96037.78;5106127;28;20039;-77
2021/05/29 06:36:32;;;;;;;5.97;4.10;;;;;;;10.96;64.97;96036.69;5115726;28;20125;-77
2021/05/29 06:38:59;;;;;;;6.90;4.20;;;;;;;10.98;66.69;96039.84;5101338;28;20052;-75
2021/05/29 06:41:25;;;;;;;8.13;4.40;;;;;;;11.06;64.38;96037.50;5098884;28;20102;-77
2021/05/29 06:43:51;;;;;;;7.97;3.75;;;;;;;11.08;65.44;96039.88;5100613;28;20046;-76
2021/05/29 06:46:17;;;;;;;5.30;3.67;;;;;;;11.03;65.15;96042.50;5110295;28;20048;-76
2021/05/29 06:48:44;;;;;;;6.20;3.92;;;;;;;11.05;66.67;96040.41;5094014;28;20066;-75
2021/05/29 06:51:14;;;;;;;4.75;3.65;;;;;;;11.15;65.53;96045.69;5103099;28;20450;-76
2021/05/29 06:53:44;;;;;;;5.10;3.83;;;;;;;11.21;62.98;96039.38;5098907;28;20612;-75
2021/05/29 06:58:54;;;;;;;4.43;3.17;;;;;;;11.46;61.88;96044.97;5113377;28;20118;-75
2021/05/29 07:01:24;;;;;;;4.40;3.38;;;;;;;11.49;63.48;96055.78;5111215;28;20504;-75
2021/05/29 07:03:51;;;;;;;4.32;3.15;;;;;;;11.53;62.04;96046.28;5106892;28;20055;-76
2021/05/29 07:06:18;;;;;;;5.38;3.17;;;;;;;11.61;59.98;96053.69;5095182;28;20405;-76
2021/05/29 07:08:44;;;;;;;6.18;3.00;;;;;;;11.83;62.64;96052.66;5094858;28;20040;-75
2021/05/29 07:11:10;;;;;;;4.28;2.88;;;;;;;11.85;58.93;96058.47;5094125;28;20051;-77
2021/05/29 07:13:35;;;;;;;5.65;2.83;;;;;;;11.98;58.41;96056.38;5106672;28;20039;-73
2021/05/29 07:16:02;;;;;;;5.72;3.40;;;;;;;12.20;58.42;96053.47;5114387;28;20075;-77
2021/05/29 07:18:33;;;;;;;4.45;2.80;;;;;;;12.26;58.20;96058.44;5094188;28;20061;-77
2021/05/29 07:21:00;;;;;;;4.25;2.78;;;;;;;12.45;58.19;96055.25;5112119;28;20043;-77
2021/05/29 07:23:27;;;;;;;4.55;3.10;;;;;;;12.42;58.32;96055.78;5110894;28;20116;-76
2021/05/29 07:25:53;;;;;;;4.05;3.00;;;;;;;12.55;59.52;96054.44;5105902;28;20409;-76
2021/05/29 07:28:19;;;;;;;4.97;3.33;;;;;;;12.82;56.33;96048.81;5093470;28;20040;-76
2021/05/29 07:30:47;;;;;;;4.40;2.90;;;;;;;12.97;57.97;96051.41;5092787;28;20032;-76
2021/05/29 07:33:12;;;;;;;5.32;2.90;;;;;;;13.01;60.66;96051.63;5100408;28;20036;-76
2021/05/29 07:35:38;;;;;;;5.97;2.85;;;;;;;12.92;58.78;96048.78;5113902;28;20040;-76
2021/05/29 07:38:04;;;;;;;5.28;2.53;;;;;;;12.99;55.07;96043.97;5112118;28;20047;-77
2021/05/29 07:40:29;;;;;;;4.65;2.90;;;;;;;12.77;56.14;96041.72;5095735;28;20051;-76
2021/05/29 07:42:55;;;;;;;3.55;2.65;;;;;;;12.83;54.06;96045.13;5101666;28;20126;-75
2021/05/29 07:45:21;;;;;;;4.32;2.53;;;;;;;12.95;56.57;96048.22;5105269;28;20115;-74
2021/05/29 07:47:46;;;;;;;4.30;2.58;;;;;;;12.87;53.99;96051.41;5106556;28;20054;-74
2021/05/29 07:50:12;;;;;;;5.68;2.40;;;;;;;12.85;52.69;96053.56;5112027;28;20118;-76
2021/05/29 07:52:38;;;;;;;4.55;2.45;;;;;;;13.16;53.59;96054.22;5112090;28;20032;-75
2021/05/29 07:55:06;;;;;;;4.72;2.55;;;;;;;13.03;53.76;96054.00;5102664;28;20040;-75
2021/05/29 07:57:32;;;;;;;4.38;2.70;;;;;;;13.15;53.26;96057.13;5097354;28;20469;-74
2021/05/29 07:59:58;;;;;;;3.38;2.25;;;;;;;13.50;52.21;96050.09;5111917;28;20039;-76
2021/05/29 08:02:24;;;;;;;3.35;2.50;;;;;;;13.85;50.32;96058.84;5111887;28;20051;-76
2021/05/29 08:04:50;;;;;;;4.05;2.50;;;;;;;14.09;50.88;96052.81;5104764;28;20447;-75
2021/05/29 08:07:15;;;;;;;3.75;2.53;;;;;;;14.11;50.92;96045.41;5111796;28;20035;-74
2021/05/29 08:09:41;;;;;;;5.05;2.85;;;;;;;13.92;54.11;96058.53;5059812;28;1113643;-75
2021/05/29 08:12:07;;;;;;;3.85;2.45;;;;;;;13.52;51.97;96055.91;5097319;28;20032;-77
2021/05/29 08:14:34;;;;;;;4.07;2.40;;;;;;;13.54;51.79;96064.34;5111513;27;20035;-76
2021/05/29 08:17:00;;;;;;;3.90;2.80;;;;;;;13.50;51.98;96068.59;5107869;28;20059;-75
2021/05/29 08:19:25;;;;;;;4.53;2.53;;;;;;;13.86;50.71;96060.41;5096805;28;20113;-75
2021/05/29 08:21:51;;;;;;;3.28;2.40;;;;;;;14.12;48.63;96065.50;5091939;28;20513;-74
2021/05/29 08:24:17;;;;;;;3.42;2.50;;;;;;;14.37;49.90;96059.97;5092720;28;20043;-75
2021/05/29 08:26:43;;;;;;;5.00;2.90;;;;;;;13.67;50.85;96063.72;5108553;28;20059;-76
2021/05/29 08:29:10;;;;;;;3.28;2.38;;;;;;;14.07;49.99;96060.28;5101481;27;20051;-75
2021/05/29 08:31:37;;;;;;;4.40;2.47;;;;;;;13.57;52.33;96055.84;5092279;28;20109;-76
2021/05/29 08:34:04;;;;;;;5.43;2.88;;;;;;;13.21;51.88;96050.75;5110203;28;20046;-73
2021/05/29 08:36:30;;;;;;;4.78;2.90;;;;;;;13.81;49.43;96048.03;5111371;28;20043;-74
2021/05/29 08:38:56;;;;;;;5.68;2.60;;;;;;;13.96;50.09;96054.25;5110539;28;20050;-75
2021/05/29 08:41:21;;;;;;;7.68;2.65;;;;;;;13.74;50.02;96046.75;5111582;28;20488;-77
2021/05/29 08:43:48;;;;;;;4.05;2.50;;;;;;;13.37;49.61;96048.06;5112150;27;20035;-76
2021/05/29 08:46:13;;;;;;;4.47;2.60;;;;;;;13.34;48.41;96052.81;5108959;28;20039;-75
2021/05/29 08:48:41;;;;;;;4.40;2.58;;;;;;;13.45;50.03;96053.56;5109698;28;20467;-76
2021/05/29 08:51:14;;;;;;;3.97;2.45;;;;;;;13.42;47.67;96050.66;5113452;28;20096;-75
2021/05/29 08:53:44;;;;;;;3.33;2.60;;;;;;;13.67;48.60;96049.72;5112773;28;20044;-74
2021/05/29 08:56:10;;;;;;;4.07;2.60;;;;;;;13.98;50.36;96050.28;5104789;28;20031;-76
2021/05/29 08:58:36;;;;;;;4.55;2.40;;;;;;;14.16;48.50;96048.00;5097006;28;20160;-75
2021/05/29 09:01:03;;;;;;;4.85;2.30;;;;;;;14.13;46.38;96043.25;5092230;28;20081;-76
2021/05/29 09:04:00;;;;;;;4.35;2.65;;;;;;;13.87;47.33;96048.78;5095803;28;20042;-73
2021/05/29 09:06:25;;;;;;;6.65;2.75;;;;;;;14.06;48.17;96048.09;5096860;28;20062;-75
2021/05/29 09:08:54;;;;;;;4.07;2.72;;;;;;;14.27;47.58;96049.50;5104685;28;20136;-76
2021/05/29 09:11:43;;;;;;;4.80;2.80;;;;;;;14.37;45.73;96044.09;5090929;28;20036;-74
2021/05/29 09:14:27;;;;;;;3.92;2.42;;;;;;;14.41;46.80;96043.53;5100518;28;20052;-75
2021/05/29 09:17:08;;;;;;;4.70;2.60;;;;;;;14.00;42.89;96055.28;5108696;28;20476;-73
2021/05/29 09:20:13;;;;;;;4.03;2.30;;;;;;;14.13;42.36;96037.97;5099222;28;20044;-75
2021/05/29 09:22:41;;;;;;;3.60;2.00;;;;;;;14.50;43.45;96049.81;5107709;28;20063;-73
2021/05/29 09:25:18;;;;;;;3.35;2.47;;;;;;;14.60;44.07;96056.84;5094641;28;20051;-72
2021/05/29 09:28:01;;;;;;;3.83;2.30;;;;;;;14.53;44.75;96049.25;5091147;28;20056;-72
2021/05/29 09:30:50;;;;;;;3.55;2.25;;;;;;;14.31;45.83;96049.69;5091054;28;20108;-72
2021/05/29 09:33:24;;;;;;;2.95;2.08;;;;;;;14.44;45.49;96048.25;5104761;28;20044;-73
2021/05/29 09:35:55;;;;;;;3.13;2.37;;;;;;;14.49;42.91;96056.16;5102501;28;20035;-72
2021/05/29 09:38:22;;;;;;;4.72;2.22;;;;;;;14.64;45.67;96057.88;5093629;28;20451;-72
2021/05/29 09:40:54;;;;;;;3.75;2.00;;;;;;;14.59;41.66;96061.34;5095804;28;20036;-73
2021/05/29 09:43:21;;;;;;;3.83;1.75;;;;;;;14.67;41.11;96063.41;5107138;28;20040;-72
2021/05/29 09:46:04;;;;;;;3.28;2.05;;;;;;;14.84;41.78;96056.88;5106755;28;20035;-72
2021/05/29 09:48:31;;;;;;;2.65;1.98;;;;;;;14.84;41.24;96067.47;5104768;28;20044;-73
2021/05/29 09:51:12;;;;;;;2.45;1.92;;;;;;;14.74;41.07;96055.13;5110298;28;20050;-71
2021/05/29 09:53:47;;;;;;;3.33;2.10;;;;;;;14.72;41.69;96059.91;5092817;28;20032;-73
2021/05/29 09:56:24;;;;;;;;;;;;;;;14.85;42.24;96050.50;5090420;28;20074;-73
2021/05/29 09:58:55;;;;;;;3.60;2.22;;;;;;;14.95;41.58;96063.63;5092779;28;19924;-73
2021/05/29 10:01:44;;;;;;;3.35;2.10;;;;;;;15.19;41.16;96057.53;5098657;28;20044;-72
2021/05/29 10:04:13;;;;;;;4.97;2.60;;;;;;;15.27;40.46;96051.59;5118216;28;20532;-78
2021/05/29 10:06:39;;;;;;;2.63;1.98;;;;;;;15.44;42.08;96047.63;5119363;28;20043;-77
2021/05/29 10:09:06;;;;;;;3.40;2.20;;;;;;;16.04;40.25;96049.69;5110237;28;20218;-79
2021/05/29 10:11:37;;;;;;;3.90;2.75;;;;;;;16.43;42.33;96046.63;5112748;28;20154;-78
2021/05/29 10:14:07;;;;;;;3.58;2.50;;;;;;;15.87;42.54;96052.88;5101256;28;20036;-79
2021/05/29 10:16:33;;;;;;;5.40;2.40;;;;;;;15.64;42.57;96052.63;5116151;28;20044;-79
2021/05/29 10:19:01;;;;;;;3.42;2.22;;;;;;;16.37;42.55;96049.66;5108546;28;20044;-73
2021/05/29 10:21:30;;;;;;;4.55;2.38;;;;;;;16.45;39.08;96044.44;5100913;28;20458;-74
2021/05/29 10:23:57;;;;;;;3.17;2.20;;;;;;;17.17;37.87;96041.50;5105445;28;20145;-72
2021/05/29 10:26:25;;;;;;;2.33;2.10;;;;;;;17.71;37.31;96045.09;5093039;28;20452;-74
2021/05/29 10:28:51;;;;;;;3.17;2.40;;;;;;;16.70;37.81;96042.38;5104856;28;20039;-77
2021/05/29 10:31:17;;;;;;;4.15;2.70;;;;;;;15.60;41.07;96054.28;5102645;28;20108;-76
2021/05/29 10:33:44;;;;;;;7.10;2.83;;;;;;;15.25;43.03;96051.06;5099452;28;20094;-77
2021/05/29 10:36:47;;;;;;;3.08;2.20;;;;;;;16.04;38.85;96049.69;5097403;28;20077;-76
2021/05/29 10:39:31;;;;;;;3.15;2.10;;;;;;;18.92;33.46;96037.31;5091883;28;20044;-78
2021/05/29 10:42:03;;;;;;;3.22;2.60;;;;;;;20.48;32.37;96041.03;5112809;28;20040;-76
2021/05/29 10:44:42;;;;;;;5.15;2.92;;;;;;;20.63;31.98;96041.63;5106959;28;20040;-78
2021/05/29 10:47:08;;;;;;;4.30;2.60;;;;;;;20.77;32.16;96031.50;5117046;28;20065;-77
2021/05/29 10:49:46;;;;;;;4.50;2.63;;;;;;;19.95;34.27;96039.59;5127058;28;20035;-77
2021/05/29 10:52:30;;;;;;;3.42;2.47;;;;;;;20.55;33.86;96041.31;5118028;28;20036;-77
2021/05/29 10:55:08;;;;;;;;;;;;;;;20.22;33.00;96044.56;5098542;28;20051;-77
2021/05/29 10:57:53;;;;;;;6.85;3.35;;;;;;;19.66;35.88;96054.34;5104061;28;20282;-77
2021/05/29 11:03:27;;;;;;;4.18;2.60;;;;;;;20.11;34.46;96040.66;5107154;28;20408;-77
2021/05/29 11:05:57;;;;;;;3.22;2.65;;;;;;;22.33;30.56;96043.31;5110882;28;20044;-77
2021/05/29 11:08:46;;;;;;;3.63;2.60;;;;;;;23.16;28.55;96036.00;5113891;28;20040;-78
2021/05/29 11:11:31;;;;;;;3.22;2.85;;;;;;;21.66;31.51;96037.91;5127506;28;20031;-77
2021/05/29 11:14:06;;;;;;;;;;;;;;;21.57;32.46;96030.72;5125054;28;20094;-76
2021/05/29 11:19:17;;;;;;;2.40;2.20;;;;;;;23.35;27.07;96022.75;5120682;28;20124;-77
2021/05/29 11:22:09;;;;;;;4.15;2.90;;;;;;;22.58;29.55;96023.44;5116986;28;20048;-76
2021/05/29 11:24:53;;;;;;;6.28;2.60;;;;;;;23.64;27.77;96023.53;5122295;28;20099;-76
2021/05/29 11:27:20;;;;;;;6.53;2.85;;;;;;;23.63;29.59;96026.56;5113910;28;20103;-78
2021/05/29 11:29:51;;;;;;;3.30;2.58;;;;;;;23.42;27.85;96037.47;5108271;28;20040;-77
2021/05/29 11:32:40;;;;;;;3.33;2.80;;;;;;;23.72;28.16;96029.13;5132247;28;20426;-78
2021/05/29 11:35:06;;;;;;;3.58;2.70;;;;;;;23.15;28.05;96018.31;5125831;28;20040;-77
2021/05/29 11:37:31;;;;;;;3.85;1.90;;;;;;;20.80;31.31;96020.16;5118999;28;20100;-76
2021/05/29 11:39:57;;;;;;;3.47;2.30;;;;;;;19.65;34.14;96018.06;5112928;28;20070;-78
2021/05/29 11:42:22;;;;;;;2.67;2.10;;;;;;;19.09;33.72;96021.31;5117657;28;20048;-78
2021/05/29 11:44:48;;;;;;;2.80;2.00;;;;;;;19.21;34.63;96018.06;5101101;27;20517;-77
2021/05/29 11:47:16;;;;;;;4.45;2.28;;;;;;;18.64;36.22;96021.50;5102097;28;20046;-77
2021/05/29 11:49:42;;;;;;;2.95;2.25;;;;;;;19.18;35.29;96030.16;5109235;28;20032;-77
2021/05/29 11:52:08;;;;;;;3.40;2.03;;;;;;;17.98;34.47;96030.13;5105986;28;20036;-76
2021/05/29 11:54:36;;;;;;;2.30;1.80;;;;;;;18.60;35.81;96015.22;5092996;28;20189;-75
2021/05/29 11:57:03;;;;;;;2.90;2.00;;;;;;;17.78;34.94;96020.72;5101726;28;20044;-76
2021/05/29 11:59:29;;;;;;;4.10;2.10;;;;;;;20.63;32.60;96017.53;5110259;28;20040;-77
2021/05/29 12:01:55;;;;;;;4.88;2.20;;;;;;;23.14;28.88;96017.53;5107263;28;20066;-78